sensor_id;sensor_type;location;lat;lon;timestamp;temperature;humidity
34766;DHT22;20984;43.508;1.504;2023-05-19T00:00:57;12.40;99.90
34766;DHT22;20984;43.508;1.504;2023-05-19T00:03:24;12.40;99.90
34766;DHT22;20984;43.508;1.504;2023-05-19T00:05:52;12.40;99.90
34766;DHT22;20984;43.508;1.504;2023-05-19T00:08:18;12.40;99.90
34766;DHT22;20984;43.508;1.504;2023-05-19T00:10:45;12.40;99.90
34766;DHT22;20984;43.508;1.504;2023-05-19T00:13:11;12.40;99.90
34766;DHT22;20984;43.508;1.504;2023-05-19T00:15:37;12.30;99.90
34766;DHT22;20984;43.508;1.504;2023-05-19T00:18:03;12.30;99.90
34766;DHT22;20984;43.508;1.504;2023-05-19T00:20:28;12.30;99.90
34766;DHT22;20984;43.508;1.504;2023-05-19T00:22:54;12.30;99.90
34766;DHT22;20984;43.508;1.504;2023-05-19T00:25:20;12.30;99.90
34766;DHT22;20984;43.508;1.504;2023-05-19T00:27:45;12.30;99.90
34766;DHT22;20984;43.508;1.504;2023-05-19T00:30:11;12.30;99.90
34766;DHT22;20984;43.508;1.504;2023-05-19T00:32:37;12.30;99.90
34766;DHT22;20984;43.508;1.504;2023-05-19T00:35:03;12.40;99.90
34766;DHT22;20984;43.508;1.504;2023-05-19T00:37:29;12.40;99.90
34766;DHT22;20984;43.508;1.504;2023-05-19T00:39:54;12.40;99.90
34766;DHT22;20984;43.508;1.504;2023-05-19T00:42:20;12.40;99.90
34766;DHT22;20984;43.508;1.504;2023-05-19T00:44:46;12.40;99.90
34766;DHT22;20984;43.508;1.504;2023-05-19T00:47:11;12.40;99.90
34766;DHT22;20984;43.508;1.504;2023-05-19T00:49:37;12.40;99.90
34766;DHT22;20984;43.508;1.504;2023-05-19T00:52:04;12.30;99.90
34766;DHT22;20984;43.508;1.504;2023-05-19T00:54:32;12.30;99.90
34766;DHT22;20984;43.508;1.504;2023-05-19T00:56:59;12.30;99.90
34766;DHT22;20984;43.508;1.504;2023-05-19T00:59:25;12.30;99.90
34766;DHT22;20984;43.508;1.504;2023-05-19T01:01:51;12.30;99.90
34766;DHT22;20984;43.508;1.504;2023-05-19T01:04:20;12.30;99.90
34766;DHT22;20984;43.508;1.504;2023-05-19T01:06:47;12.30;99.90
34766;DHT22;20984;43.508;1.504;2023-05-19T01:09:22;12.30;99.90
34766;DHT22;20984;43.508;1.504;2023-05-19T01:11:49;12.30;99.90
34766;DHT22;20984;43.508;1.504;2023-05-19T01:14:15;12.30;99.90
34766;DHT22;20984;43.508;1.504;2023-05-19T01:22:51;12.30;99.90
34766;DHT22;20984;43.508;1.504;2023-05-19T01:31:16;12.20;99.90
34766;DHT22;20984;43.508;1.504;2023-05-19T01:33:45;12.20;99.90
34766;DHT22;20984;43.508;1.504;2023-05-19T01:36:13;12.20;99.90
34766;DHT22;20984;43.508;1.504;2023-05-19T01:38:39;12.20;99.90
34766;DHT22;20984;43.508;1.504;2023-05-19T01:41:07;12.20;99.90
34766;DHT22;20984;43.508;1.504;2023-05-19T01:43:34;12.20;99.90
34766;DHT22;20984;43.508;1.504;2023-05-19T01:46:01;12.20;99.90
34766;DHT22;20984;43.508;1.504;2023-05-19T01:48:27;12.20;99.90
34766;DHT22;20984;43.508;1.504;2023-05-19T01:50:54;12.20;99.90
34766;DHT22;20984;43.508;1.504;2023-05-19T01:53:22;12.20;99.90
34766;DHT22;20984;43.508;1.504;2023-05-19T01:55:50;12.20;99.90
34766;DHT22;20984;43.508;1.504;2023-05-19T02:03:41;12.20;99.90
34766;DHT22;20984;43.508;1.504;2023-05-19T02:11:41;12.20;99.90
34766;DHT22;20984;43.508;1.504;2023-05-19T02:14:18;12.20;99.90
34766;DHT22;20984;43.508;1.504;2023-05-19T02:16:46;12.20;99.90
34766;DHT22;20984;43.508;1.504;2023-05-19T02:19:26;12.20;99.90
34766;DHT22;20984;43.508;1.504;2023-05-19T02:21:52;12.20;99.90
34766;DHT22;20984;43.508;1.504;2023-05-19T02:24:18;12.20;99.90
34766;DHT22;20984;43.508;1.504;2023-05-19T02:26:48;12.20;99.90
34766;DHT22;20984;43.508;1.504;2023-05-19T02:29:14;12.20;99.90
34766;DHT22;20984;43.508;1.504;2023-05-19T02:31:40;12.20;99.90
34766;DHT22;20984;43.508;1.504;2023-05-19T02:34:06;12.10;99.90
34766;DHT22;20984;43.508;1.504;2023-05-19T02:36:33;12.10;99.90
34766;DHT22;20984;43.508;1.504;2023-05-19T02:39:01;12.00;99.90
34766;DHT22;20984;43.508;1.504;2023-05-19T02:41:27;12.00;99.90
34766;DHT22;20984;43.508;1.504;2023-05-19T02:43:53;11.90;99.90
34766;DHT22;20984;43.508;1.504;2023-05-19T02:46:18;11.90;99.90
34766;DHT22;20984;43.508;1.504;2023-05-19T02:48:44;11.80;99.90
34766;DHT22;20984;43.508;1.504;2023-05-19T02:51:10;11.80;99.90
34766;DHT22;20984;43.508;1.504;2023-05-19T02:53:35;11.80;99.90
34766;DHT22;20984;43.508;1.504;2023-05-19T02:56:01;11.70;99.90
34766;DHT22;20984;43.508;1.504;2023-05-19T02:58:27;11.70;99.90
34766;DHT22;20984;43.508;1.504;2023-05-19T03:00:53;11.70;99.90
34766;DHT22;20984;43.508;1.504;2023-05-19T03:03:19;11.70;99.90
34766;DHT22;20984;43.508;1.504;2023-05-19T03:05:44;11.60;99.90
34766;DHT22;20984;43.508;1.504;2023-05-19T03:08:11;11.60;99.90
34766;DHT22;20984;43.508;1.504;2023-05-19T03:10:37;11.60;99.90
34766;DHT22;20984;43.508;1.504;2023-05-19T03:13:03;11.50;99.90
34766;DHT22;20984;43.508;1.504;2023-05-19T03:15:28;11.50;99.90
34766;DHT22;20984;43.508;1.504;2023-05-19T03:17:55;11.50;99.90
34766;DHT22;20984;43.508;1.504;2023-05-19T03:20:21;11.50;99.90
34766;DHT22;20984;43.508;1.504;2023-05-19T03:22:46;11.50;99.90
34766;DHT22;20984;43.508;1.504;2023-05-19T03:25:12;11.50;99.90
34766;DHT22;20984;43.508;1.504;2023-05-19T03:27:38;11.50;99.90
34766;DHT22;20984;43.508;1.504;2023-05-19T03:30:04;11.50;99.90
34766;DHT22;20984;43.508;1.504;2023-05-19T03:32:30;11.50;99.90
34766;DHT22;20984;43.508;1.504;2023-05-19T03:34:57;11.50;99.90
34766;DHT22;20984;43.508;1.504;2023-05-19T03:37:23;11.50;99.90
34766;DHT22;20984;43.508;1.504;2023-05-19T03:39:48;11.50;99.90
34766;DHT22;20984;43.508;1.504;2023-05-19T03:42:14;11.50;99.90
34766;DHT22;20984;43.508;1.504;2023-05-19T03:44:40;11.50;99.90
34766;DHT22;20984;43.508;1.504;2023-05-19T03:47:06;11.50;99.90
34766;DHT22;20984;43.508;1.504;2023-05-19T03:49:32;11.40;99.90
34766;DHT22;20984;43.508;1.504;2023-05-19T03:51:57;11.40;99.90
34766;DHT22;20984;43.508;1.504;2023-05-19T03:54:23;11.40;99.90
34766;DHT22;20984;43.508;1.504;2023-05-19T03:56:49;11.50;99.90
34766;DHT22;20984;43.508;1.504;2023-05-19T03:59:14;11.40;99.90
34766;DHT22;20984;43.508;1.504;2023-05-19T04:01:40;11.40;99.90
34766;DHT22;20984;43.508;1.504;2023-05-19T04:04:06;11.40;99.90
34766;DHT22;20984;43.508;1.504;2023-05-19T04:06:32;11.40;99.90
34766;DHT22;20984;43.508;1.504;2023-05-19T04:08:58;11.40;99.90
34766;DHT22;20984;43.508;1.504;2023-05-19T04:11:24;11.40;99.90
34766;DHT22;20984;43.508;1.504;2023-05-19T04:13:49;11.40;99.90
34766;DHT22;20984;43.508;1.504;2023-05-19T04:16:15;11.40;99.90
34766;DHT22;20984;43.508;1.504;2023-05-19T04:18:41;11.40;99.90
34766;DHT22;20984;43.508;1.504;2023-05-19T04:21:06;11.40;99.90
34766;DHT22;20984;43.508;1.504;2023-05-19T04:23:33;11.40;99.90
34766;DHT22;20984;43.508;1.504;2023-05-19T04:25:58;11.30;99.90
34766;DHT22;20984;43.508;1.504;2023-05-19T04:28:26;11.30;99.90
34766;DHT22;20984;43.508;1.504;2023-05-19T04:30:51;11.30;99.90
34766;DHT22;20984;43.508;1.504;2023-05-19T04:33:17;11.30;99.90
34766;DHT22;20984;43.508;1.504;2023-05-19T04:35:44;11.30;99.90
34766;DHT22;20984;43.508;1.504;2023-05-19T04:38:10;11.30;99.90
34766;DHT22;20984;43.508;1.504;2023-05-19T04:40:36;11.30;99.90
34766;DHT22;20984;43.508;1.504;2023-05-19T04:43:04;11.30;99.90
34766;DHT22;20984;43.508;1.504;2023-05-19T04:45:31;11.30;99.90
34766;DHT22;20984;43.508;1.504;2023-05-19T04:47:57;11.30;99.90
34766;DHT22;20984;43.508;1.504;2023-05-19T04:50:23;11.30;99.90
34766;DHT22;20984;43.508;1.504;2023-05-19T04:52:49;11.30;99.90
34766;DHT22;20984;43.508;1.504;2023-05-19T04:55:15;11.30;99.90
34766;DHT22;20984;43.508;1.504;2023-05-19T04:57:41;11.30;99.90
34766;DHT22;20984;43.508;1.504;2023-05-19T05:00:07;11.30;99.90
34766;DHT22;20984;43.508;1.504;2023-05-19T05:02:36;11.30;99.90
34766;DHT22;20984;43.508;1.504;2023-05-19T05:05:02;11.30;99.90
34766;DHT22;20984;43.508;1.504;2023-05-19T05:07:28;11.40;99.90
34766;DHT22;20984;43.508;1.504;2023-05-19T05:09:54;11.40;99.90
34766;DHT22;20984;43.508;1.504;2023-05-19T05:12:20;11.40;99.90
34766;DHT22;20984;43.508;1.504;2023-05-19T05:14:46;11.40;99.90
34766;DHT22;20984;43.508;1.504;2023-05-19T05:17:12;11.40;99.90
34766;DHT22;20984;43.508;1.504;2023-05-19T05:19:39;11.40;99.90
34766;DHT22;20984;43.508;1.504;2023-05-19T05:22:05;11.40;99.90
34766;DHT22;20984;43.508;1.504;2023-05-19T05:24:31;11.50;99.90
34766;DHT22;20984;43.508;1.504;2023-05-19T05:26:57;11.50;99.90
34766;DHT22;20984;43.508;1.504;2023-05-19T05:29:24;11.50;99.90
34766;DHT22;20984;43.508;1.504;2023-05-19T05:31:50;11.50;99.90
34766;DHT22;20984;43.508;1.504;2023-05-19T05:34:15;11.50;99.90
34766;DHT22;20984;43.508;1.504;2023-05-19T05:36:41;11.60;99.90
34766;DHT22;20984;43.508;1.504;2023-05-19T05:39:07;11.60;99.90
34766;DHT22;20984;43.508;1.504;2023-05-19T05:41:33;11.60;99.90
34766;DHT22;20984;43.508;1.504;2023-05-19T05:44:01;11.60;99.90
34766;DHT22;20984;43.508;1.504;2023-05-19T05:46:27;11.60;99.90
34766;DHT22;20984;43.508;1.504;2023-05-19T05:48:53;11.70;99.90
34766;DHT22;20984;43.508;1.504;2023-05-19T05:51:23;11.70;99.90
34766;DHT22;20984;43.508;1.504;2023-05-19T05:53:55;11.70;99.90
34766;DHT22;20984;43.508;1.504;2023-05-19T05:56:22;11.70;99.90
34766;DHT22;20984;43.508;1.504;2023-05-19T05:58:47;11.70;99.90
34766;DHT22;20984;43.508;1.504;2023-05-19T06:01:14;11.70;99.90
34766;DHT22;20984;43.508;1.504;2023-05-19T06:03:42;11.70;99.90
34766;DHT22;20984;43.508;1.504;2023-05-19T06:06:10;11.70;99.90
34766;DHT22;20984;43.508;1.504;2023-05-19T06:08:37;11.70;99.90
34766;DHT22;20984;43.508;1.504;2023-05-19T06:11:02;11.70;99.90
34766;DHT22;20984;43.508;1.504;2023-05-19T06:13:36;11.70;99.90
34766;DHT22;20984;43.508;1.504;2023-05-19T06:16:02;11.70;99.90
34766;DHT22;20984;43.508;1.504;2023-05-19T06:18:28;11.70;99.90
34766;DHT22;20984;43.508;1.504;2023-05-19T06:20:54;11.70;99.90
34766;DHT22;20984;43.508;1.504;2023-05-19T06:23:20;11.80;99.90
34766;DHT22;20984;43.508;1.504;2023-05-19T06:25:45;11.80;99.90
34766;DHT22;20984;43.508;1.504;2023-05-19T06:28:11;11.90;99.90
34766;DHT22;20984;43.508;1.504;2023-05-19T06:30:37;11.90;99.90
34766;DHT22;20984;43.508;1.504;2023-05-19T06:33:02;11.90;99.90
34766;DHT22;20984;43.508;1.504;2023-05-19T06:35:29;12.00;99.90
34766;DHT22;20984;43.508;1.504;2023-05-19T06:37:55;12.00;99.90
34766;DHT22;20984;43.508;1.504;2023-05-19T06:40:21;12.10;99.90
34766;DHT22;20984;43.508;1.504;2023-05-19T06:42:47;12.10;99.90
34766;DHT22;20984;43.508;1.504;2023-05-19T06:45:13;12.20;99.90
34766;DHT22;20984;43.508;1.504;2023-05-19T06:47:38;12.20;99.90
34766;DHT22;20984;43.508;1.504;2023-05-19T06:50:09;12.20;99.90
34766;DHT22;20984;43.508;1.504;2023-05-19T06:52:35;12.20;99.90
34766;DHT22;20984;43.508;1.504;2023-05-19T06:55:01;12.20;99.90
34766;DHT22;20984;43.508;1.504;2023-05-19T06:57:26;12.10;99.90
34766;DHT22;20984;43.508;1.504;2023-05-19T06:59:52;12.20;99.90
34766;DHT22;20984;43.508;1.504;2023-05-19T07:02:18;12.20;99.90
34766;DHT22;20984;43.508;1.504;2023-05-19T07:04:43;12.20;99.90
34766;DHT22;20984;43.508;1.504;2023-05-19T07:07:09;12.20;99.90
34766;DHT22;20984;43.508;1.504;2023-05-19T07:09:35;12.10;99.90
34766;DHT22;20984;43.508;1.504;2023-05-19T07:12:00;12.20;99.90
34766;DHT22;20984;43.508;1.504;2023-05-19T07:14:26;12.20;99.90
34766;DHT22;20984;43.508;1.504;2023-05-19T07:16:52;12.10;99.90
34766;DHT22;20984;43.508;1.504;2023-05-19T07:19:18;12.10;99.90
34766;DHT22;20984;43.508;1.504;2023-05-19T07:21:45;12.20;99.90
34766;DHT22;20984;43.508;1.504;2023-05-19T07:24:11;12.20;99.90
34766;DHT22;20984;43.508;1.504;2023-05-19T07:26:36;12.20;99.90
34766;DHT22;20984;43.508;1.504;2023-05-19T07:29:02;12.20;99.90
34766;DHT22;20984;43.508;1.504;2023-05-19T07:31:28;12.20;99.90
34766;DHT22;20984;43.508;1.504;2023-05-19T07:33:53;12.20;99.90
34766;DHT22;20984;43.508;1.504;2023-05-19T07:36:19;12.20;99.90
34766;DHT22;20984;43.508;1.504;2023-05-19T07:38:45;12.10;99.90
34766;DHT22;20984;43.508;1.504;2023-05-19T07:41:11;12.10;99.90
34766;DHT22;20984;43.508;1.504;2023-05-19T07:43:37;12.00;99.90
34766;DHT22;20984;43.508;1.504;2023-05-19T07:46:03;12.10;99.90
34766;DHT22;20984;43.508;1.504;2023-05-19T07:48:28;12.10;99.90
34766;DHT22;20984;43.508;1.504;2023-05-19T07:50:54;12.10;99.90
34766;DHT22;20984;43.508;1.504;2023-05-19T07:53:20;12.10;99.90
34766;DHT22;20984;43.508;1.504;2023-05-19T07:55:47;12.10;99.90
34766;DHT22;20984;43.508;1.504;2023-05-19T07:58:13;12.10;99.90
34766;DHT22;20984;43.508;1.504;2023-05-19T08:00:39;12.20;99.90
34766;DHT22;20984;43.508;1.504;2023-05-19T08:03:07;12.20;99.90
34766;DHT22;20984;43.508;1.504;2023-05-19T08:05:34;12.10;99.90
34766;DHT22;20984;43.508;1.504;2023-05-19T08:08:00;12.10;99.90
34766;DHT22;20984;43.508;1.504;2023-05-19T08:10:27;12.20;99.90
34766;DHT22;20984;43.508;1.504;2023-05-19T08:12:53;12.20;99.90
34766;DHT22;20984;43.508;1.504;2023-05-19T08:15:19;12.30;99.90
34766;DHT22;20984;43.508;1.504;2023-05-19T08:17:45;12.40;99.90
34766;DHT22;20984;43.508;1.504;2023-05-19T08:20:10;12.40;99.90
34766;DHT22;20984;43.508;1.504;2023-05-19T08:22:37;12.50;99.90
34766;DHT22;20984;43.508;1.504;2023-05-19T08:25:03;12.50;99.90
34766;DHT22;20984;43.508;1.504;2023-05-19T08:27:30;12.70;99.90
34766;DHT22;20984;43.508;1.504;2023-05-19T08:29:55;12.80;99.90
34766;DHT22;20984;43.508;1.504;2023-05-19T08:32:21;12.90;99.90
34766;DHT22;20984;43.508;1.504;2023-05-19T08:34:47;12.90;99.90
34766;DHT22;20984;43.508;1.504;2023-05-19T08:37:13;13.00;99.90
34766;DHT22;20984;43.508;1.504;2023-05-19T08:39:39;13.00;99.90
34766;DHT22;20984;43.508;1.504;2023-05-19T08:42:05;12.80;99.90
34766;DHT22;20984;43.508;1.504;2023-05-19T08:44:32;12.60;99.90
34766;DHT22;20984;43.508;1.504;2023-05-19T08:47:03;12.50;99.90
34766;DHT22;20984;43.508;1.504;2023-05-19T08:49:32;12.50;99.90
34766;DHT22;20984;43.508;1.504;2023-05-19T08:54:40;12.70;99.90
34766;DHT22;20984;43.508;1.504;2023-05-19T08:57:06;12.80;99.90
34766;DHT22;20984;43.508;1.504;2023-05-19T08:59:32;12.90;99.90
34766;DHT22;20984;43.508;1.504;2023-05-19T09:01:59;13.00;99.90
34766;DHT22;20984;43.508;1.504;2023-05-19T09:04:25;13.00;99.90
34766;DHT22;20984;43.508;1.504;2023-05-19T09:06:52;13.10;99.90
34766;DHT22;20984;43.508;1.504;2023-05-19T09:09:18;13.10;99.90
34766;DHT22;20984;43.508;1.504;2023-05-19T09:11:45;13.10;99.90
34766;DHT22;20984;43.508;1.504;2023-05-19T09:14:11;13.10;99.90
34766;DHT22;20984;43.508;1.504;2023-05-19T09:16:36;13.20;99.90
34766;DHT22;20984;43.508;1.504;2023-05-19T09:19:03;13.20;99.90
34766;DHT22;20984;43.508;1.504;2023-05-19T09:21:30;13.30;99.90
34766;DHT22;20984;43.508;1.504;2023-05-19T09:23:58;13.40;99.90
34766;DHT22;20984;43.508;1.504;2023-05-19T09:26:36;13.40;99.90
34766;DHT22;20984;43.508;1.504;2023-05-19T09:29:12;13.40;99.90
34766;DHT22;20984;43.508;1.504;2023-05-19T09:31:39;13.40;99.90
34766;DHT22;20984;43.508;1.504;2023-05-19T09:34:11;13.30;99.90
34766;DHT22;20984;43.508;1.504;2023-05-19T09:36:39;13.30;99.90
34766;DHT22;20984;43.508;1.504;2023-05-19T09:39:12;13.40;99.90
34766;DHT22;20984;43.508;1.504;2023-05-19T09:41:38;13.50;99.90
34766;DHT22;20984;43.508;1.504;2023-05-19T09:44:04;13.60;99.90
34766;DHT22;20984;43.508;1.504;2023-05-19T09:46:31;13.70;99.90
34766;DHT22;20984;43.508;1.504;2023-05-19T09:49:08;13.80;99.90
34766;DHT22;20984;43.508;1.504;2023-05-19T09:51:40;13.80;99.90
34766;DHT22;20984;43.508;1.504;2023-05-19T09:54:06;13.90;99.90
34766;DHT22;20984;43.508;1.504;2023-05-19T09:56:34;13.80;99.90
34766;DHT22;20984;43.508;1.504;2023-05-19T09:59:02;13.70;99.90
34766;DHT22;20984;43.508;1.504;2023-05-19T10:01:29;13.60;99.90
34766;DHT22;20984;43.508;1.504;2023-05-19T10:03:58;13.60;99.90
34766;DHT22;20984;43.508;1.504;2023-05-19T10:06:25;13.60;99.90
34766;DHT22;20984;43.508;1.504;2023-05-19T10:08:51;13.70;99.90
34766;DHT22;20984;43.508;1.504;2023-05-19T10:11:17;13.70;99.90
34766;DHT22;20984;43.508;1.504;2023-05-19T10:13:44;13.70;99.90
34766;DHT22;20984;43.508;1.504;2023-05-19T10:16:11;13.70;99.90
34766;DHT22;20984;43.508;1.504;2023-05-19T10:18:38;13.70;99.90
34766;DHT22;20984;43.508;1.504;2023-05-19T10:21:06;13.80;99.90
34766;DHT22;20984;43.508;1.504;2023-05-19T10:23:33;13.90;99.90
34766;DHT22;20984;43.508;1.504;2023-05-19T10:26:00;13.80;99.90
34766;DHT22;20984;43.508;1.504;2023-05-19T10:28:38;13.80;99.90
34766;DHT22;20984;43.508;1.504;2023-05-19T10:31:07;13.90;99.90
34766;DHT22;20984;43.508;1.504;2023-05-19T10:36:48;14.10;99.90
34766;DHT22;20984;43.508;1.504;2023-05-19T10:39:33;14.20;99.90
34766;DHT22;20984;43.508;1.504;2023-05-19T10:45:26;14.20;99.90
34766;DHT22;20984;43.508;1.504;2023-05-19T10:47:31;14.30;99.90
34766;DHT22;20984;43.508;1.504;2023-05-19T10:49:59;14.30;99.90
34766;DHT22;20984;43.508;1.504;2023-05-19T10:52:25;14.30;99.90
34766;DHT22;20984;43.508;1.504;2023-05-19T10:54:51;14.50;99.90
34766;DHT22;20984;43.508;1.504;2023-05-19T10:57:25;14.60;99.90
34766;DHT22;20984;43.508;1.504;2023-05-19T10:59:57;14.40;99.90
34766;DHT22;20984;43.508;1.504;2023-05-19T11:02:43;14.30;99.90
34766;DHT22;20984;43.508;1.504;2023-05-19T11:05:13;14.40;99.90
34766;DHT22;20984;43.508;1.504;2023-05-19T11:07:43;14.30;99.90
34766;DHT22;20984;43.508;1.504;2023-05-19T11:10:09;14.30;99.90
34766;DHT22;20984;43.508;1.504;2023-05-19T11:12:44;14.30;99.90
34766;DHT22;20984;43.508;1.504;2023-05-19T11:15:13;14.30;99.90
34766;DHT22;20984;43.508;1.504;2023-05-19T11:17:40;14.20;99.90
34766;DHT22;20984;43.508;1.504;2023-05-19T11:20:28;14.20;99.90
34766;DHT22;20984;43.508;1.504;2023-05-19T11:23:07;14.20;99.90
34766;DHT22;20984;43.508;1.504;2023-05-19T11:25:47;14.20;99.90
34766;DHT22;20984;43.508;1.504;2023-05-19T11:28:18;14.20;99.90
34766;DHT22;20984;43.508;1.504;2023-05-19T11:30:45;14.30;99.90
34766;DHT22;20984;43.508;1.504;2023-05-19T11:33:13;14.40;99.90
34766;DHT22;20984;43.508;1.504;2023-05-19T11:35:45;14.40;99.90
34766;DHT22;20984;43.508;1.504;2023-05-19T11:38:12;14.30;99.90
34766;DHT22;20984;43.508;1.504;2023-05-19T11:40:40;14.20;99.90
34766;DHT22;20984;43.508;1.504;2023-05-19T11:43:06;14.10;99.90
34766;DHT22;20984;43.508;1.504;2023-05-19T11:45:32;14.20;99.90
34766;DHT22;20984;43.508;1.504;2023-05-19T11:47:58;14.10;99.90
34766;DHT22;20984;43.508;1.504;2023-05-19T11:50:24;14.20;99.90
34766;DHT22;20984;43.508;1.504;2023-05-19T11:52:53;14.30;99.90
34766;DHT22;20984;43.508;1.504;2023-05-19T11:55:20;14.50;99.90
34766;DHT22;20984;43.508;1.504;2023-05-19T11:58:02;14.60;99.90
34766;DHT22;20984;43.508;1.504;2023-05-19T12:00:33;14.60;99.90
34766;DHT22;20984;43.508;1.504;2023-05-19T12:03:01;14.70;99.90
34766;DHT22;20984;43.508;1.504;2023-05-19T12:05:27;15.00;99.90
34766;DHT22;20984;43.508;1.504;2023-05-19T12:07:54;15.00;99.90
34766;DHT22;20984;43.508;1.504;2023-05-19T12:10:23;15.10;99.90
34766;DHT22;20984;43.508;1.504;2023-05-19T12:12:50;15.00;99.90
34766;DHT22;20984;43.508;1.504;2023-05-19T12:15:23;14.90;99.90
34766;DHT22;20984;43.508;1.504;2023-05-19T12:18:00;14.90;99.90
34766;DHT22;20984;43.508;1.504;2023-05-19T12:20:27;15.00;99.90
34766;DHT22;20984;43.508;1.504;2023-05-19T12:22:56;15.10;99.90
34766;DHT22;20984;43.508;1.504;2023-05-19T12:25:22;15.20;99.90
34766;DHT22;20984;43.508;1.504;2023-05-19T12:27:49;15.20;99.90
34766;DHT22;20984;43.508;1.504;2023-05-19T12:30:17;15.30;99.90
34766;DHT22;20984;43.508;1.504;2023-05-19T12:32:44;15.30;99.90
34766;DHT22;20984;43.508;1.504;2023-05-19T12:35:10;15.30;99.90
34766;DHT22;20984;43.508;1.504;2023-05-19T12:37:40;15.20;99.90
34766;DHT22;20984;43.508;1.504;2023-05-19T12:40:06;15.20;99.90
34766;DHT22;20984;43.508;1.504;2023-05-19T12:42:32;15.30;99.90
34766;DHT22;20984;43.508;1.504;2023-05-19T12:45:01;15.30;99.90
34766;DHT22;20984;43.508;1.504;2023-05-19T12:47:34;15.30;99.90
34766;DHT22;20984;43.508;1.504;2023-05-19T12:50:08;15.40;99.90
34766;DHT22;20984;43.508;1.504;2023-05-19T12:52:46;15.50;99.90
34766;DHT22;20984;43.508;1.504;2023-05-19T12:55:13;15.60;99.90
34766;DHT22;20984;43.508;1.504;2023-05-19T12:57:42;15.70;99.90
34766;DHT22;20984;43.508;1.504;2023-05-19T13:00:16;15.90;99.90
34766;DHT22;20984;43.508;1.504;2023-05-19T13:02:56;16.00;99.90
34766;DHT22;20984;43.508;1.504;2023-05-19T13:05:22;16.20;99.90
34766;DHT22;20984;43.508;1.504;2023-05-19T13:07:59;16.20;99.90
34766;DHT22;20984;43.508;1.504;2023-05-19T13:10:25;16.30;99.90
34766;DHT22;20984;43.508;1.504;2023-05-19T13:12:53;16.60;99.90
34766;DHT22;20984;43.508;1.504;2023-05-19T13:15:20;16.80;99.90
34766;DHT22;20984;43.508;1.504;2023-05-19T13:17:46;16.90;99.90
34766;DHT22;20984;43.508;1.504;2023-05-19T13:20:12;17.00;99.90
34766;DHT22;20984;43.508;1.504;2023-05-19T13:22:38;17.10;99.90
34766;DHT22;20984;43.508;1.504;2023-05-19T13:25:04;17.20;99.90
34766;DHT22;20984;43.508;1.504;2023-05-19T13:27:29;17.50;99.90
34766;DHT22;20984;43.508;1.504;2023-05-19T13:29:55;17.40;99.90
34766;DHT22;20984;43.508;1.504;2023-05-19T13:32:21;17.40;99.90
34766;DHT22;20984;43.508;1.504;2023-05-19T13:34:46;17.20;99.90
34766;DHT22;20984;43.508;1.504;2023-05-19T13:37:12;17.40;99.90
34766;DHT22;20984;43.508;1.504;2023-05-19T13:39:38;17.50;99.90
34766;DHT22;20984;43.508;1.504;2023-05-19T13:42:05;17.40;99.90
34766;DHT22;20984;43.508;1.504;2023-05-19T13:44:31;17.30;99.90
34766;DHT22;20984;43.508;1.504;2023-05-19T13:46:57;17.30;99.90
34766;DHT22;20984;43.508;1.504;2023-05-19T13:49:22;17.50;99.90
34766;DHT22;20984;43.508;1.504;2023-05-19T13:51:49;17.30;99.90
34766;DHT22;20984;43.508;1.504;2023-05-19T13:54:16;17.40;99.90
34766;DHT22;20984;43.508;1.504;2023-05-19T13:56:42;17.50;99.90
34766;DHT22;20984;43.508;1.504;2023-05-19T13:59:10;17.50;99.90
34766;DHT22;20984;43.508;1.504;2023-05-19T14:01:36;17.60;99.90
34766;DHT22;20984;43.508;1.504;2023-05-19T14:04:01;17.70;99.90
34766;DHT22;20984;43.508;1.504;2023-05-19T14:06:27;18.00;99.90
34766;DHT22;20984;43.508;1.504;2023-05-19T14:08:52;18.20;99.90
34766;DHT22;20984;43.508;1.504;2023-05-19T14:11:19;18.20;99.90
34766;DHT22;20984;43.508;1.504;2023-05-19T14:13:47;18.40;99.90
34766;DHT22;20984;43.508;1.504;2023-05-19T14:16:15;18.40;99.90
34766;DHT22;20984;43.508;1.504;2023-05-19T14:18:41;18.50;99.90
34766;DHT22;20984;43.508;1.504;2023-05-19T14:21:07;18.60;99.90
34766;DHT22;20984;43.508;1.504;2023-05-19T14:23:32;18.60;99.90
34766;DHT22;20984;43.508;1.504;2023-05-19T14:25:58;18.70;99.90
34766;DHT22;20984;43.508;1.504;2023-05-19T14:28:24;18.80;99.90
34766;DHT22;20984;43.508;1.504;2023-05-19T14:30:49;18.90;99.90
34766;DHT22;20984;43.508;1.504;2023-05-19T14:33:16;18.70;99.90
34766;DHT22;20984;43.508;1.504;2023-05-19T14:35:42;18.50;99.90
34766;DHT22;20984;43.508;1.504;2023-05-19T14:38:07;18.40;99.90
34766;DHT22;20984;43.508;1.504;2023-05-19T14:40:35;18.40;99.90
34766;DHT22;20984;43.508;1.504;2023-05-19T14:43:01;18.20;99.90
34766;DHT22;20984;43.508;1.504;2023-05-19T14:45:27;18.00;99.90
34766;DHT22;20984;43.508;1.504;2023-05-19T14:47:53;17.90;99.90
34766;DHT22;20984;43.508;1.504;2023-05-19T14:50:19;17.80;99.90
34766;DHT22;20984;43.508;1.504;2023-05-19T14:52:44;17.60;99.90
34766;DHT22;20984;43.508;1.504;2023-05-19T14:55:10;17.50;99.90
34766;DHT22;20984;43.508;1.504;2023-05-19T14:57:36;17.40;99.90
34766;DHT22;20984;43.508;1.504;2023-05-19T15:00:01;17.30;99.90
34766;DHT22;20984;43.508;1.504;2023-05-19T15:02:27;17.20;99.90
34766;DHT22;20984;43.508;1.504;2023-05-19T15:04:53;17.10;99.90
34766;DHT22;20984;43.508;1.504;2023-05-19T15:07:18;17.00;99.90
34766;DHT22;20984;43.508;1.504;2023-05-19T15:09:44;17.00;99.90
34766;DHT22;20984;43.508;1.504;2023-05-19T15:12:10;17.00;99.90
34766;DHT22;20984;43.508;1.504;2023-05-19T15:14:35;17.00;99.90
34766;DHT22;20984;43.508;1.504;2023-05-19T15:17:01;17.00;99.90
34766;DHT22;20984;43.508;1.504;2023-05-19T15:19:26;16.90;99.90
34766;DHT22;20984;43.508;1.504;2023-05-19T15:21:52;16.90;99.90
34766;DHT22;20984;43.508;1.504;2023-05-19T15:24:18;16.80;99.90
34766;DHT22;20984;43.508;1.504;2023-05-19T15:26:44;16.70;99.90
34766;DHT22;20984;43.508;1.504;2023-05-19T15:29:10;16.70;99.90
34766;DHT22;20984;43.508;1.504;2023-05-19T15:31:35;16.60;99.90
34766;DHT22;20984;43.508;1.504;2023-05-19T15:34:01;16.60;99.90
34766;DHT22;20984;43.508;1.504;2023-05-19T15:36:26;16.50;99.90
34766;DHT22;20984;43.508;1.504;2023-05-19T15:38:52;16.50;99.90
34766;DHT22;20984;43.508;1.504;2023-05-19T15:41:18;16.40;99.90
34766;DHT22;20984;43.508;1.504;2023-05-19T15:43:43;16.30;99.90
34766;DHT22;20984;43.508;1.504;2023-05-19T15:46:10;16.30;99.90
34766;DHT22;20984;43.508;1.504;2023-05-19T15:48:37;16.30;99.90
34766;DHT22;20984;43.508;1.504;2023-05-19T15:51:03;16.20;99.90
34766;DHT22;20984;43.508;1.504;2023-05-19T15:53:29;16.10;99.90
34766;DHT22;20984;43.508;1.504;2023-05-19T15:55:54;16.00;99.90
34766;DHT22;20984;43.508;1.504;2023-05-19T15:58:21;15.90;99.90
34766;DHT22;20984;43.508;1.504;2023-05-19T16:00:47;15.70;99.90